Main page
METAR-TAF:

METAR-TAF

Airports :

Leipzig–Altenburg Airport

Altenburg, Germany

latitude: 50-58N, longitude: 012-30E, elevation: 195 m

Current weather observation

The report was made 31 minutes ago, at 12:50 UTC
Wind 17 kt from the West
Temperature 7°C
Humidity 57%
Pressure 1026 hPa
Visibility 10 km or more
Broken clouds at a height of 4100 ft
Overcast at a height of 5300 ft

METAR: EDAC 261250Z 28017KT 9999 BKN041 OVC053 07/M01 Q1026

Time: 14:21 (13:21 UTC)

Forecast

The report was made 2 hours and 21 minutes ago, at 11:00 UTC
Forecast valid from 26 at 12 UTC to 26 at 21 UTC
Wind 14 kt from the West
Visibility 10 km or more
Broken clouds at a height of 4500 ft
Probability 30% :
Temporary
from 26 at 12 UTC to 26 at 16 UTC
Wind 15 kt from the West/Northwest with gusts up to 25 kt
Becoming
from 26 at 16 UTC to 26 at 19 UTC
Wind 9 kt from the West

TAF: EDAC 261100Z 2612/2621 28014KT 9999 BKN045 PROB30 TEMPO 2612/2616 29015G25KT BECMG 2616/2619 28009KT

Weather observations and forecasts of more than 4000 airports (METAR and TAF reports).

The available stations are represented by yellow and red dots on the map.

Hover mouse over dot to see the name of the station.

Then click to see weather observations and forecasts.

To change the map : click on the green buttons with a black cross to zoom in, on the green button with a dash to zoom out, or on the green arrows for adjacent maps.


METAR-TAF: